createdAt,value
2017-10-26T00:00:49.522Z,3.50
2017-10-26T00:03:17.991Z,3.87
2017-10-26T00:05:46.437Z,3.63
2017-10-26T00:08:15.662Z,3.47
2017-10-26T00:10:44.103Z,3.70
2017-10-26T00:13:12.574Z,4.77
2017-10-26T00:15:41.026Z,3.40
2017-10-26T00:18:09.494Z,4.83
2017-10-26T00:20:37.938Z,5.20
2017-10-26T00:23:07.170Z,5.17
2017-10-26T00:25:35.670Z,4.80
2017-10-26T00:28:04.163Z,4.50
2017-10-26T00:30:32.631Z,4.80
2017-10-26T00:33:01.064Z,6.23
2017-10-26T00:35:30.418Z,5.77
2017-10-26T00:37:58.866Z,5.90
2017-10-26T00:40:28.098Z,5.60
2017-10-26T00:42:56.538Z,5.90
2017-10-26T00:45:25.770Z,5.60
2017-10-26T00:47:54.227Z,5.20
2017-10-26T00:50:23.463Z,4.77
2017-10-26T00:52:52.343Z,5.60
2017-10-26T00:55:20.826Z,5.63
2017-10-26T00:57:49.312Z,6.20
2017-10-26T01:00:17.798Z,4.83
2017-10-26T01:02:46.247Z,5.57
2017-10-26T01:05:15.576Z,4.40
2017-10-26T01:07:44.179Z,5.03
2017-10-26T01:10:12.642Z,5.47
2017-10-26T01:12:41.130Z,4.57
2017-10-26T01:15:09.590Z,5.17
2017-10-26T01:17:38.095Z,4.63
2017-10-26T01:20:06.579Z,4.50
2017-10-26T01:22:35.059Z,5.40
2017-10-26T01:25:03.530Z,5.30
2017-10-26T01:27:31.982Z,5.33
2017-10-26T01:30:01.216Z,4.00
2017-10-26T01:32:29.680Z,4.90
2017-10-26T01:34:58.187Z,5.07
2017-10-26T01:37:26.673Z,4.57
2017-10-26T01:39:55.150Z,5.20
2017-10-26T01:42:23.625Z,4.33
2017-10-26T01:44:52.114Z,5.03
2017-10-26T01:47:20.689Z,5.03
2017-10-26T01:49:49.130Z,4.20
2017-10-26T01:52:18.357Z,4.60
2017-10-26T01:54:46.863Z,5.07
2017-10-26T01:57:15.321Z,5.27
2017-10-26T01:59:43.758Z,4.90
2017-10-26T02:02:13.026Z,4.70
2017-10-26T02:04:41.500Z,4.50
2017-10-26T02:07:09.960Z,4.80
2017-10-26T02:09:38.461Z,4.37
2017-10-26T02:12:06.927Z,4.47
2017-10-26T02:14:35.394Z,4.50
2017-10-26T02:17:04.610Z,4.60
2017-10-26T02:19:33.073Z,4.97
2017-10-26T02:22:02.318Z,4.93
2017-10-26T02:24:30.782Z,4.47
2017-10-26T02:26:59.274Z,4.33
2017-10-26T02:29:45.475Z,4.93
2017-10-26T02:32:13.952Z,5.20
2017-10-26T02:34:42.441Z,4.40
2017-10-26T02:37:10.921Z,5.00
2017-10-26T02:39:39.385Z,5.37
2017-10-26T02:42:07.882Z,4.00
2017-10-26T02:44:36.346Z,5.30
2017-10-26T02:47:04.781Z,4.90
2017-10-26T02:49:33.252Z,5.23
2017-10-26T02:52:01.813Z,5.50
2017-10-26T02:54:30.296Z,4.53
2017-10-26T02:56:58.773Z,5.60
2017-10-26T02:59:27.214Z,5.20
2017-10-26T03:01:56.556Z,5.10
2017-10-26T03:04:25.048Z,4.60
2017-10-26T03:06:53.509Z,5.40
2017-10-26T03:09:22.002Z,6.43
2017-10-26T03:11:50.471Z,5.30
2017-10-26T03:14:18.917Z,6.27
2017-10-26T03:16:48.154Z,5.47
2017-10-26T03:19:16.589Z,6.10
2017-10-26T03:21:45.059Z,5.77
2017-10-26T03:24:13.514Z,5.33
2017-10-26T03:26:41.978Z,5.60
2017-10-26T03:29:10.413Z,4.47
2017-10-26T03:31:38.886Z,5.97
2017-10-26T03:34:07.336Z,5.00
2017-10-26T03:36:35.889Z,5.43
2017-10-26T03:39:05.091Z,5.30
2017-10-26T03:41:33.538Z,5.83
2017-10-26T03:44:02.001Z,5.47
2017-10-26T03:46:30.441Z,5.70
2017-10-26T03:48:58.907Z,5.60
2017-10-26T03:51:28.150Z,5.00
2017-10-26T03:53:56.614Z,4.33
2017-10-26T03:56:25.061Z,4.33
2017-10-26T03:58:54.298Z,4.83
2017-10-26T04:01:22.796Z,5.60
2017-10-26T04:03:51.370Z,5.40
2017-10-26T04:06:19.860Z,5.43
2017-10-26T04:08:48.438Z,4.63
2017-10-26T04:11:16.885Z,4.90
2017-10-26T04:13:46.231Z,4.90
2017-10-26T04:16:14.669Z,5.57
2017-10-26T04:18:43.893Z,5.00
2017-10-26T04:21:12.337Z,6.13
2017-10-26T04:23:41.793Z,5.93
2017-10-26T04:26:10.271Z,5.97
2017-10-26T04:28:38.818Z,5.57
2017-10-26T04:31:08.051Z,5.60
2017-10-26T04:33:36.511Z,7.37
2017-10-26T04:36:05.018Z,6.07
2017-10-26T04:38:33.459Z,6.40
2017-10-26T04:41:02.695Z,6.20
2017-10-26T04:43:31.134Z,8.20
2017-10-26T04:46:00.373Z,7.03
2017-10-26T04:48:28.821Z,6.13
2017-10-26T04:50:58.061Z,7.37
2017-10-26T04:53:26.541Z,7.60
2017-10-26T04:55:55.133Z,7.50
2017-10-26T04:58:23.585Z,6.97
2017-10-26T05:00:52.814Z,8.20
2017-10-26T05:03:21.267Z,6.67
2017-10-26T05:05:49.730Z,6.87
2017-10-26T05:08:18.939Z,8.83
2017-10-26T05:10:48.171Z,7.33
2017-10-26T05:13:16.604Z,9.47
2017-10-26T05:15:45.062Z,7.70
2017-10-26T05:18:13.506Z,7.27
2017-10-26T05:20:41.997Z,7.20
2017-10-26T05:23:10.488Z,7.43
2017-10-26T05:25:38.942Z,6.90
2017-10-26T05:28:07.389Z,7.33
2017-10-26T05:30:35.838Z,7.90
2017-10-26T05:33:04.297Z,7.23
2017-10-26T05:35:32.742Z,6.70
2017-10-26T05:38:01.975Z,7.67
2017-10-26T05:40:30.413Z,7.10
2017-10-26T05:42:58.886Z,7.47
2017-10-26T05:45:27.334Z,6.70
2017-10-26T05:47:55.819Z,7.30
2017-10-26T05:50:24.288Z,7.77
2017-10-26T05:52:52.760Z,7.77
2017-10-26T05:55:21.201Z,7.00
2017-10-26T05:57:49.674Z,7.23
2017-10-26T06:00:18.118Z,7.70
2017-10-26T06:02:46.703Z,6.87
2017-10-26T06:05:15.153Z,8.57
2017-10-26T06:07:44.390Z,7.60
2017-10-26T06:10:12.854Z,7.40
2017-10-26T06:12:41.288Z,7.27
2017-10-26T06:15:09.759Z,6.30
2017-10-26T06:17:38.197Z,6.60
2017-10-26T06:20:06.657Z,6.23
2017-10-26T06:22:35.891Z,6.27
2017-10-26T06:25:04.349Z,6.43
2017-10-26T06:27:33.569Z,6.77
2017-10-26T06:30:02.035Z,6.17
2017-10-26T06:32:30.537Z,8.27
2017-10-26T06:34:59.001Z,6.47
2017-10-26T06:37:27.443Z,7.30
2017-10-26T06:39:55.916Z,6.37
2017-10-26T06:42:24.353Z,6.13
2017-10-26T06:44:52.798Z,6.77
2017-10-26T06:47:22.145Z,6.23
2017-10-26T06:49:50.589Z,5.60
2017-10-26T06:52:19.822Z,6.40
2017-10-26T06:54:48.279Z,5.33
2017-10-26T06:57:17.510Z,6.63
2017-10-26T06:59:45.953Z,5.80
2017-10-26T07:02:15.177Z,6.20
2017-10-26T07:04:43.615Z,6.87
2017-10-26T07:07:12.082Z,7.17
2017-10-26T07:09:40.525Z,6.87
2017-10-26T07:12:09.014Z,6.10
2017-10-26T07:14:37.449Z,7.20
2017-10-26T07:17:06.803Z,7.00
2017-10-26T07:19:35.254Z,7.07
2017-10-26T07:22:03.744Z,8.57
2017-10-26T07:24:32.186Z,6.40
2017-10-26T07:27:00.624Z,7.60
2017-10-26T07:29:29.115Z,6.70
2017-10-26T07:31:57.562Z,7.80
2017-10-26T07:34:26.055Z,6.57
2017-10-26T07:36:54.508Z,8.10
2017-10-26T07:39:23.758Z,7.17
2017-10-26T07:41:52.242Z,7.80
2017-10-26T07:44:20.710Z,6.57
2017-10-26T07:46:49.150Z,7.80
2017-10-26T07:49:18.503Z,8.40
2017-10-26T07:51:46.940Z,8.40
2017-10-26T07:54:16.170Z,7.67
2017-10-26T07:56:44.618Z,7.33
2017-10-26T07:59:13.845Z,8.17
2017-10-26T08:01:42.293Z,8.87
2017-10-26T08:04:11.532Z,9.30
2017-10-26T08:06:40.022Z,10.30
2017-10-26T08:09:08.486Z,8.20
2017-10-26T08:11:36.993Z,8.00
2017-10-26T08:14:05.458Z,7.87
2017-10-26T08:16:33.959Z,9.27
2017-10-26T08:19:02.451Z,8.60
2017-10-26T08:21:30.921Z,8.30
2017-10-26T08:23:59.366Z,7.70
2017-10-26T08:26:28.699Z,8.97
2017-10-26T08:28:57.186Z,9.80
2017-10-26T08:31:25.721Z,8.53
2017-10-26T08:33:55.040Z,9.03
2017-10-26T08:36:24.366Z,9.60
2017-10-26T08:38:52.849Z,9.67
2017-10-26T08:41:21.313Z,9.97
2017-10-26T08:43:49.759Z,9.53
2017-10-26T08:46:18.217Z,9.40
2017-10-26T08:48:46.658Z,9.67
2017-10-26T08:51:15.122Z,8.20
2017-10-26T08:53:44.362Z,8.03
2017-10-26T08:56:12.845Z,8.70
2017-10-26T08:58:41.294Z,8.13
2017-10-26T09:01:09.802Z,8.60
2017-10-26T09:03:38.394Z,8.27
2017-10-26T09:06:06.833Z,7.33
2017-10-26T09:08:36.057Z,8.27
2017-10-26T09:11:04.625Z,7.17
2017-10-26T09:13:33.858Z,6.40
2017-10-26T09:16:02.297Z,7.50
2017-10-26T09:18:31.521Z,6.70
2017-10-26T09:20:59.961Z,6.80
2017-10-26T09:23:28.435Z,5.90
2017-10-26T09:25:56.881Z,5.97
2017-10-26T09:28:25.343Z,5.87
2017-10-26T09:30:53.782Z,5.77
2017-10-26T09:33:40.705Z,5.20
2017-10-26T09:36:09.157Z,5.90
2017-10-26T09:38:37.726Z,5.83
2017-10-26T09:41:06.176Z,5.67
2017-10-26T09:43:34.658Z,6.80
2017-10-26T09:46:03.101Z,6.20
2017-10-26T09:48:31.648Z,5.83
2017-10-26T09:51:00.098Z,5.23
2017-10-26T09:53:29.302Z,5.90
2017-10-26T09:55:58.526Z,6.10
2017-10-26T09:58:27.010Z,4.90
2017-10-26T10:00:55.473Z,5.30
2017-10-26T10:03:23.910Z,5.03
2017-10-26T10:05:52.455Z,6.40
2017-10-26T10:08:20.937Z,5.10
2017-10-26T10:10:49.419Z,7.20
2017-10-26T10:13:17.908Z,4.50
2017-10-26T10:15:46.373Z,4.80
2017-10-26T10:18:14.808Z,4.57
2017-10-26T10:20:43.270Z,4.40
2017-10-26T10:23:11.704Z,4.47
2017-10-26T10:25:40.189Z,5.27
2017-10-26T10:28:08.625Z,4.77
2017-10-26T10:30:37.067Z,5.57
2017-10-26T10:33:05.535Z,5.87
2017-10-26T10:35:33.974Z,5.03
2017-10-26T10:38:02.447Z,5.83
2017-10-26T10:40:30.906Z,5.70
2017-10-26T10:42:59.483Z,4.40
2017-10-26T10:45:27.970Z,4.87
2017-10-26T10:47:56.430Z,4.50
2017-10-26T10:50:24.928Z,4.37
2017-10-26T10:52:53.385Z,4.90
2017-10-26T10:55:22.612Z,4.33
2017-10-26T10:57:51.090Z,4.60
2017-10-26T11:00:25.037Z,4.80
2017-10-26T11:02:53.493Z,5.20
2017-10-26T11:05:21.938Z,4.50
2017-10-26T11:07:51.163Z,4.60
2017-10-26T11:10:19.651Z,4.20
2017-10-26T11:12:48.113Z,5.40
2017-10-26T11:15:16.549Z,4.40
2017-10-26T11:17:45.030Z,4.87
2017-10-26T11:20:13.478Z,4.53
2017-10-26T11:22:41.943Z,5.50
2017-10-26T11:25:10.456Z,4.63
2017-10-26T11:27:38.982Z,5.00
2017-10-26T11:30:08.198Z,5.43
2017-10-26T11:32:36.693Z,4.20
2017-10-26T11:35:05.130Z,4.57
2017-10-26T11:37:33.671Z,4.83
2017-10-26T11:40:02.129Z,4.47
2017-10-26T11:42:30.569Z,4.53
2017-10-26T11:44:59.111Z,4.00
2017-10-26T11:47:27.558Z,5.17
2017-10-26T11:49:56.777Z,4.13
2017-10-26T11:52:25.279Z,4.67
2017-10-26T11:54:53.749Z,3.70
2017-10-26T11:57:22.198Z,4.27
2017-10-26T11:59:51.428Z,5.13
2017-10-26T12:02:19.873Z,4.43
2017-10-26T12:04:49.118Z,4.37
2017-10-26T12:07:17.559Z,4.13
2017-10-26T12:09:46.785Z,4.07
2017-10-26T12:12:15.222Z,4.03
2017-10-26T12:14:43.673Z,3.60
2017-10-26T12:17:12.110Z,4.50
2017-10-26T12:19:41.449Z,4.20
2017-10-26T12:22:09.893Z,4.07
2017-10-26T12:24:39.099Z,4.57
2017-10-26T12:27:08.426Z,3.90
2017-10-26T12:29:36.915Z,3.73
2017-10-26T12:32:05.389Z,4.57
2017-10-26T12:34:33.874Z,5.20
2017-10-26T12:37:02.334Z,4.60
2017-10-26T12:39:30.839Z,4.80
2017-10-26T12:41:59.297Z,3.40
2017-10-26T12:44:27.743Z,5.60
2017-10-26T12:46:56.289Z,7.20
2017-10-26T12:49:24.730Z,5.60
2017-10-26T12:51:54.994Z,6.00
2017-10-26T12:54:23.470Z,5.73
2017-10-26T12:56:51.935Z,5.60
2017-10-26T12:59:20.382Z,6.10
2017-10-26T13:01:48.918Z,6.40
2017-10-26T13:04:17.354Z,7.77
2017-10-26T13:06:46.597Z,5.70
2017-10-26T13:09:15.029Z,6.50
2017-10-26T13:11:44.279Z,8.60
2017-10-26T13:14:12.762Z,6.00
2017-10-26T13:16:41.250Z,8.03
2017-10-26T13:19:09.844Z,8.40
2017-10-26T13:21:38.314Z,8.20
2017-10-26T13:24:06.785Z,8.07
2017-10-26T13:26:35.274Z,7.43
2017-10-26T13:29:03.737Z,8.60
2017-10-26T13:31:32.237Z,10.10
2017-10-26T13:34:00.719Z,8.43
2017-10-26T13:36:29.169Z,10.30
2017-10-26T13:38:58.714Z,8.43
2017-10-26T13:41:27.153Z,9.97
2017-10-26T13:43:56.388Z,8.80
2017-10-26T13:46:24.829Z,9.43
2017-10-26T13:48:54.062Z,9.07
2017-10-26T13:51:22.506Z,9.00
2017-10-26T13:53:51.756Z,9.70
2017-10-26T13:56:20.221Z,9.93
2017-10-26T13:58:48.722Z,12.00
2017-10-26T14:01:17.182Z,12.90
2017-10-26T14:03:45.679Z,12.47
2017-10-26T14:06:14.248Z,14.67
2017-10-26T14:08:42.697Z,14.40
2017-10-26T14:11:11.162Z,18.37
2017-10-26T14:13:39.614Z,19.57
2017-10-26T14:16:08.082Z,17.10
2017-10-26T14:18:36.576Z,13.27
2017-10-26T14:21:05.040Z,14.40
2017-10-26T14:23:33.486Z,14.30
2017-10-26T14:26:01.945Z,13.87
2017-10-26T14:28:30.386Z,16.27
2017-10-26T14:30:58.852Z,14.50
2017-10-26T14:33:28.084Z,12.17
2017-10-26T14:35:56.566Z,12.60
2017-10-26T14:38:25.151Z,13.07
2017-10-26T14:40:53.594Z,14.37
2017-10-26T14:43:22.840Z,14.47
2017-10-26T14:45:51.298Z,12.67
2017-10-26T14:48:19.766Z,13.60
2017-10-26T14:50:48.214Z,14.40
2017-10-26T14:53:16.673Z,14.10
2017-10-26T14:55:45.137Z,15.73
2017-10-26T14:58:13.722Z,16.00
2017-10-26T15:00:42.204Z,16.27
2017-10-26T15:03:10.665Z,15.37
2017-10-26T15:05:39.170Z,16.20
2017-10-26T15:08:07.747Z,16.10
2017-10-26T15:10:36.202Z,16.47
2017-10-26T15:13:05.535Z,15.73
2017-10-26T15:15:33.986Z,18.03
2017-10-26T15:18:02.462Z,17.27
2017-10-26T15:20:31.694Z,18.07
2017-10-26T15:23:00.251Z,21.80
2017-10-26T15:25:29.462Z,21.30
2017-10-26T15:27:57.966Z,19.37
2017-10-26T15:30:26.439Z,20.80
2017-10-26T15:32:54.930Z,20.00
2017-10-26T15:35:23.409Z,18.80
2017-10-26T15:37:51.885Z,18.97
2017-10-26T15:40:20.345Z,17.53
2017-10-26T15:42:49.573Z,15.67
2017-10-26T15:45:18.046Z,16.90
2017-10-26T15:47:46.501Z,18.80
2017-10-26T15:50:15.737Z,18.53
2017-10-26T15:52:44.218Z,17.93
2017-10-26T15:55:12.690Z,17.60
2017-10-26T15:57:41.138Z,17.90
2017-10-26T16:00:10.439Z,16.53
2017-10-26T16:02:39.645Z,17.00
2017-10-26T16:05:08.882Z,17.67
2017-10-26T16:07:37.375Z,18.50
2017-10-26T16:10:05.839Z,17.53
2017-10-26T16:12:34.312Z,18.40
2017-10-26T16:15:02.759Z,17.03
2017-10-26T16:17:32.082Z,18.40
2017-10-26T16:20:00.593Z,17.37
2017-10-26T16:22:29.183Z,16.97
2017-10-26T16:24:57.625Z,17.30
2017-10-26T16:27:26.957Z,17.87
2017-10-26T16:29:55.437Z,15.97
2017-10-26T16:32:24.027Z,16.53
2017-10-26T16:34:52.477Z,16.93
2017-10-26T16:37:21.710Z,17.03
2017-10-26T16:39:50.185Z,15.33
2017-10-26T16:42:18.655Z,17.37
2017-10-26T16:44:47.145Z,16.70
2017-10-26T16:47:15.614Z,15.80
2017-10-26T16:49:44.062Z,15.60
2017-10-26T16:52:13.311Z,16.73
2017-10-26T16:54:41.757Z,16.00
2017-10-26T16:57:11.100Z,15.27
2017-10-26T16:59:39.541Z,16.30
2017-10-26T17:02:08.884Z,16.90
2017-10-26T17:04:37.334Z,17.13
2017-10-26T17:07:06.585Z,15.93
2017-10-26T17:09:35.021Z,15.37
2017-10-26T17:12:03.474Z,15.20
2017-10-26T17:14:32.013Z,16.53
2017-10-26T17:17:00.459Z,15.40
2017-10-26T17:19:28.934Z,12.90
2017-10-26T17:21:58.142Z,14.67
2017-10-26T17:24:27.382Z,16.00
2017-10-26T17:26:55.832Z,15.93
2017-10-26T17:29:24.298Z,15.37
2017-10-26T17:31:53.536Z,16.23
2017-10-26T17:34:22.006Z,15.17
2017-10-26T17:36:50.451Z,14.80
2017-10-26T17:39:19.693Z,15.90
2017-10-26T17:41:48.132Z,15.87
2017-10-26T17:44:17.365Z,15.27
2017-10-26T17:46:45.812Z,15.80
2017-10-26T17:49:15.163Z,15.57
2017-10-26T17:51:43.645Z,14.53
2017-10-26T17:54:12.110Z,15.27
2017-10-26T17:56:40.611Z,14.90
2017-10-26T17:59:09.966Z,15.07
2017-10-26T18:01:39.214Z,13.67
2017-10-26T18:04:07.694Z,12.43
2017-10-26T18:06:36.163Z,13.40
2017-10-26T18:09:04.613Z,11.33
2017-10-26T18:11:33.846Z,13.70
2017-10-26T18:14:02.295Z,12.30
2017-10-26T18:16:31.531Z,11.77
2017-10-26T18:19:00.218Z,11.90
2017-10-26T18:21:28.686Z,13.30
2017-10-26T18:23:57.131Z,13.17
2017-10-26T18:26:25.670Z,14.30
2017-10-26T18:28:54.122Z,12.47
2017-10-26T18:31:22.626Z,12.53
2017-10-26T18:33:51.086Z,12.60
2017-10-26T18:36:19.555Z,11.70
2017-10-26T18:38:48.769Z,11.47
2017-10-26T18:41:17.238Z,10.70
2017-10-26T18:43:46.462Z,10.67
2017-10-26T18:46:15.067Z,11.00
2017-10-26T18:48:43.538Z,11.13
2017-10-26T18:51:12.026Z,10.83
2017-10-26T18:53:40.611Z,11.13
2017-10-26T18:56:09.057Z,10.63
2017-10-26T18:58:38.390Z,11.17
2017-10-26T19:01:06.879Z,11.90
2017-10-26T19:03:35.350Z,10.97
2017-10-26T19:06:03.835Z,11.23
2017-10-26T19:08:32.299Z,9.33
2017-10-26T19:11:00.733Z,8.73
2017-10-26T19:13:29.194Z,9.53
2017-10-26T19:15:57.667Z,7.67
2017-10-26T19:18:26.582Z,7.40
2017-10-26T19:20:55.035Z,7.30
2017-10-26T19:23:23.524Z,8.30
2017-10-26T19:25:51.966Z,7.13
2017-10-26T19:28:21.182Z,7.73
2017-10-26T19:30:49.646Z,8.30
2017-10-26T19:33:18.845Z,7.97
2017-10-26T19:35:48.078Z,7.70
2017-10-26T19:38:16.534Z,7.77
2017-10-26T19:40:45.867Z,9.10
2017-10-26T19:43:14.342Z,8.33
2017-10-26T19:45:42.807Z,6.53
2017-10-26T19:48:11.307Z,7.37
2017-10-26T19:50:39.802Z,7.20
2017-10-26T19:53:08.274Z,9.10
2017-10-26T19:55:36.729Z,7.53
2017-10-26T19:58:05.933Z,7.07
2017-10-26T20:00:34.439Z,7.73
2017-10-26T20:03:02.887Z,6.80
2017-10-26T20:05:32.114Z,6.87
2017-10-26T20:08:00.598Z,6.43
2017-10-26T20:10:29.093Z,6.90
2017-10-26T20:12:57.570Z,7.27
2017-10-26T20:15:26.262Z,7.43
2017-10-26T20:17:54.839Z,7.07
2017-10-26T20:20:23.319Z,6.67
2017-10-26T20:22:51.790Z,6.83
2017-10-26T20:25:20.230Z,7.10
2017-10-26T20:27:48.703Z,10.80
2017-10-26T20:30:17.145Z,10.30
2017-10-26T20:32:45.626Z,7.50
2017-10-26T20:35:14.109Z,5.77
2017-10-26T20:37:42.577Z,6.13
2017-10-26T20:40:11.014Z,7.63
2017-10-26T20:42:39.550Z,7.77
2017-10-26T20:45:08.039Z,8.03
2017-10-26T20:47:36.477Z,7.90
2017-10-26T20:50:11.226Z,8.33
2017-10-26T20:52:45.162Z,7.97
2017-10-26T20:58:20.554Z,9.57
2017-10-26T21:00:54.305Z,8.43
2017-10-26T21:03:28.271Z,8.27
2017-10-26T21:06:02.210Z,8.93
2017-10-26T21:08:37.082Z,7.77
2017-10-26T21:11:11.145Z,8.60
2017-10-26T21:13:45.791Z,9.20
2017-10-26T21:16:14.303Z,9.87
2017-10-26T21:18:42.888Z,10.13
2017-10-26T21:21:11.370Z,8.83
2017-10-26T21:23:39.835Z,8.87
2017-10-26T21:26:08.279Z,8.40
2017-10-26T21:28:37.527Z,8.73
2017-10-26T21:31:05.971Z,8.60
2017-10-26T21:33:40.774Z,10.30
2017-10-26T21:36:09.226Z,9.40
2017-10-26T21:38:37.667Z,9.73
2017-10-26T21:41:06.894Z,9.33
2017-10-26T21:43:35.382Z,10.33
2017-10-26T21:46:03.849Z,9.50
2017-10-26T21:48:32.297Z,10.10
2017-10-26T21:51:00.831Z,9.50
2017-10-26T21:53:29.310Z,9.00
2017-10-26T21:55:57.795Z,10.13
2017-10-26T21:58:26.243Z,9.80
2017-10-26T22:00:55.465Z,8.93
2017-10-26T22:03:23.953Z,8.80
2017-10-26T22:05:52.419Z,8.90
2017-10-26T22:08:20.867Z,6.20
2017-10-26T22:10:50.148Z,7.30
2017-10-26T22:13:18.703Z,7.80
2017-10-26T22:15:47.195Z,7.60
2017-10-26T22:18:15.665Z,6.33
2017-10-26T22:20:44.128Z,6.20
2017-10-26T22:23:12.632Z,5.87
2017-10-26T22:25:41.102Z,6.20
2017-10-26T22:28:09.554Z,6.37
2017-10-26T22:30:38.795Z,7.47
2017-10-26T22:33:07.278Z,6.10
2017-10-26T22:35:35.866Z,6.63
2017-10-26T22:38:04.314Z,6.63
2017-10-26T22:40:33.542Z,6.57
2017-10-26T22:43:01.990Z,5.53
2017-10-26T22:45:31.228Z,6.20
2017-10-26T22:47:59.694Z,5.17
2017-10-26T22:50:28.134Z,6.50
2017-10-26T22:52:56.606Z,6.17
2017-10-26T22:55:25.051Z,6.17
2017-10-26T22:57:53.538Z,5.67
2017-10-26T23:00:22.214Z,6.07
2017-10-26T23:02:50.695Z,5.30
2017-10-26T23:05:19.138Z,5.67
2017-10-26T23:07:48.368Z,6.37
2017-10-26T23:10:16.864Z,5.50
2017-10-26T23:12:45.356Z,5.63
2017-10-26T23:15:13.797Z,5.87
2017-10-26T23:17:43.031Z,5.30
2017-10-26T23:20:11.473Z,6.27
2017-10-26T23:22:40.706Z,5.13
2017-10-26T23:25:09.190Z,4.50
2017-10-26T23:27:37.671Z,5.10
2017-10-26T23:30:06.163Z,5.03
2017-10-26T23:32:34.626Z,5.53
2017-10-26T23:35:03.065Z,5.30
2017-10-26T23:37:31.530Z,5.97
2017-10-26T23:39:59.974Z,3.90
2017-10-26T23:42:28.449Z,4.47
2017-10-26T23:44:56.949Z,4.73
2017-10-26T23:47:25.535Z,4.40
2017-10-26T23:49:53.974Z,4.23
2017-10-26T23:52:23.326Z,4.60
2017-10-26T23:54:51.774Z,3.60
2017-10-26T23:57:20.276Z,4.53
2017-10-26T23:59:48.859Z,3.30
